Charlotte, NC (28217)

1:42 PM EST on December 22, 2014 (GMT -0500)
Yorkmount | Change Station
CLOSE
Current Station
Personal Weather Station
Location: Charlotte, NC
Elevation: 709 ft
Nearby Weather Stations

Elev 709 ft 35.16 °N, 80.90 °W | Updated 2 minutes ago

Fog
Fog
43.7 °F
Feels Like 44 °F
N
0.0
Wind Variable Wind from North
Gusts 0.0 mph

Today
High -- | Low -- °F
--% Chance of Precip.
Yesterday
High -- | Low -- °F
Precip. -- in
7:28 AM 5:16 PM
New Moon, 1% visible
Pressure 30.07 in
Visibility 1.5 miles
Clouds Overcast 300 ft
Windchill 44 °F
Dew Point 32 °F
Humidity 98%
Rainfall 0.00 in
Snow Depth Not available.
UV 1 out of 12
Pollen .30 out of 12
Air Quality Not available.
Flu Activity Not available.
METAR KCLT 221752Z 03008KT 1 1/2SM -DZ BR OVC003 03/02 A3007

More Conditions Fewer Conditions

Pressure 30.07 in
Visibility 1.5 miles
Clouds Overcast 300 ft
Windchill 44 °F
Dew Point 32 °F
Humidity 98%
Rainfall 0.00 in
Snow Depth Not available.
UV 1 out of 12
Pollen .30 out of 12
Air Quality Not available.
Flu Activity Not available.
METAR KCLT 221752Z 03008KT 1 1/2SM -DZ BR OVC003 03/02 A3007

More Conditions Fewer Conditions

10-Day Weather Forecast

Almanac

Astronomy

Dec. 22, 2014 Rise Set
Actual Time
Civil Twilight
Nautical Twilight
Astronomical Twilight
Moon
Length of Visible Light
Length of Day
Tomorrow will be .
, % of the Moon is Illuminated

Today's Extremes

State Highs State Lows

Community

WunderPhotos

Upload Photos

1,779,687 photos uploaded!

WunderBlogs® & News

Nearby

Air Quality

  Air Quality AQ Index Pollutant
Not available.

Snow Depth

Station Depth Elevation

Earthquake Activity

City Distance Mag. Time & Date
Minimum magnitude displayed is 2.5.

Coastal Water Temperatures

Place Temperature

Nearby Weather Stations